createdAt,value
2022-11-29T00:01:40.395Z,4.03
2022-11-29T00:04:07.647Z,6.00
2022-11-29T00:06:35.148Z,4.57
2022-11-29T00:09:07.926Z,5.45
2022-11-29T00:11:55.418Z,4.88
2022-11-29T00:14:23.133Z,5.60
2022-11-29T00:16:52.050Z,6.05
2022-11-29T00:19:19.401Z,5.50
2022-11-29T00:21:46.204Z,4.45
2022-11-29T00:24:13.689Z,5.35
2022-11-29T00:26:40.521Z,5.50
2022-11-29T00:29:07.358Z,4.57
2022-11-29T00:31:34.589Z,6.10
2022-11-29T00:34:04.602Z,5.57
2022-11-29T00:36:31.524Z,5.17
2022-11-29T00:38:58.400Z,4.65
2022-11-29T00:41:25.802Z,4.78
2022-11-29T00:43:53.158Z,5.30
2022-11-29T00:46:20.087Z,4.90
2022-11-29T00:48:47.005Z,4.97
2022-11-29T00:51:13.748Z,5.00
2022-11-29T00:53:40.771Z,4.93
2022-11-29T00:56:08.133Z,4.65
2022-11-29T00:58:36.377Z,4.63
2022-11-29T01:01:03.773Z,5.63
2022-11-29T01:03:31.062Z,4.60
2022-11-29T01:06:05.508Z,3.90
2022-11-29T01:08:32.857Z,3.67
2022-11-29T01:11:13.523Z,4.57
2022-11-29T01:13:41.498Z,4.38
2022-11-29T01:16:09.299Z,3.42
2022-11-29T01:18:36.832Z,4.38
2022-11-29T01:21:12.456Z,4.70
2022-11-29T01:23:39.619Z,3.58
2022-11-29T01:26:13.168Z,4.93
2022-11-29T01:28:40.892Z,4.07
2022-11-29T01:31:13.697Z,4.65
2022-11-29T01:33:40.602Z,4.53
2022-11-29T01:36:08.397Z,4.68
2022-11-29T01:38:35.723Z,4.38
2022-11-29T01:41:08.559Z,3.80
2022-11-29T01:43:57.809Z,3.60
2022-11-29T01:46:25.467Z,4.20
2022-11-29T01:48:54.944Z,4.10
2022-11-29T01:51:22.175Z,2.53
2022-11-29T01:53:49.052Z,4.95
2022-11-29T01:56:16.420Z,4.63
2022-11-29T01:58:45.053Z,3.83
2022-11-29T02:01:12.683Z,4.53
2022-11-29T02:03:39.614Z,4.10
2022-11-29T02:06:06.990Z,4.10
2022-11-29T02:08:37.909Z,4.03
2022-11-29T02:13:39.163Z,2.88
2022-11-29T02:16:12.168Z,4.28
2022-11-29T02:18:55.717Z,4.25
2022-11-29T02:22:07.281Z,4.00
2022-11-29T02:24:49.867Z,3.92
2022-11-29T02:27:35.445Z,4.18
2022-11-29T02:30:28.078Z,3.67
2022-11-29T02:33:30.200Z,2.85
2022-11-29T02:36:16.833Z,3.00
2022-11-29T02:39:02.465Z,2.80
2022-11-29T02:41:57.969Z,4.15
2022-11-29T02:44:27.778Z,3.78
2022-11-29T02:47:11.544Z,3.63
2022-11-29T02:50:01.027Z,3.03
2022-11-29T02:52:40.234Z,3.80
2022-11-29T02:55:16.491Z,3.63
2022-11-29T02:57:51.750Z,3.80
2022-11-29T03:00:20.677Z,3.30
2022-11-29T03:03:00.267Z,4.55
2022-11-29T03:05:51.649Z,3.22
2022-11-29T03:08:33.689Z,3.72
2022-11-29T03:11:09.688Z,2.35
2022-11-29T03:13:46.486Z,1.83
2022-11-29T03:16:19.268Z,3.60
2022-11-29T03:19:15.502Z,3.47
2022-11-29T03:22:11.626Z,3.38
2022-11-29T03:25:06.574Z,3.30
2022-11-29T03:28:12.557Z,3.40
2022-11-29T03:30:41.389Z,3.20
2022-11-29T03:33:32.430Z,2.63
2022-11-29T03:38:46.558Z,3.25
2022-11-29T03:41:18.084Z,2.85
2022-11-29T03:44:05.749Z,3.42
2022-11-29T03:46:42.110Z,3.58
2022-11-29T03:49:27.805Z,2.92
2022-11-29T03:52:06.403Z,2.80
2022-11-29T03:55:07.403Z,2.92
2022-11-29T03:57:50.377Z,2.30
2022-11-29T04:00:18.373Z,3.20
2022-11-29T04:03:22.731Z,3.30
2022-11-29T04:05:49.544Z,2.50
2022-11-29T04:08:42.252Z,3.55
2022-11-29T04:11:58.831Z,2.58
2022-11-29T04:14:33.787Z,2.35
2022-11-29T04:17:37.509Z,2.90
2022-11-29T04:20:15.003Z,2.30
2022-11-29T04:22:46.130Z,3.47
2022-11-29T04:25:36.977Z,2.95
2022-11-29T04:28:18.555Z,3.03
2022-11-29T04:30:56.902Z,2.78
2022-11-29T04:33:32.934Z,2.50
2022-11-29T04:36:14.872Z,3.47
2022-11-29T04:38:46.605Z,3.03
2022-11-29T04:41:28.606Z,2.47
2022-11-29T04:44:16.789Z,2.72
2022-11-29T04:46:43.576Z,2.95
2022-11-29T04:49:29.113Z,2.72
2022-11-29T04:52:28.126Z,3.65
2022-11-29T04:55:30.725Z,2.33
2022-11-29T04:58:21.170Z,2.80
2022-11-29T05:01:32.403Z,2.65
2022-11-29T05:07:09.431Z,2.38
2022-11-29T05:10:00.839Z,2.50
2022-11-29T05:12:33.790Z,2.70
2022-11-29T05:15:22.127Z,2.50
2022-11-29T05:18:09.507Z,2.78
2022-11-29T05:20:47.402Z,1.35
2022-11-29T05:23:28.068Z,2.85
2022-11-29T05:26:00.575Z,1.65
2022-11-29T05:28:46.102Z,2.72
2022-11-29T05:31:25.224Z,2.38
2022-11-29T05:34:35.075Z,2.40
2022-11-29T05:37:26.580Z,1.52
2022-11-29T05:42:38.974Z,2.53
2022-11-29T05:45:30.737Z,2.75
2022-11-29T05:48:10.824Z,2.80
2022-11-29T05:50:42.408Z,2.60
2022-11-29T05:53:22.417Z,2.83
2022-11-29T05:56:04.831Z,2.92
2022-11-29T05:58:46.689Z,2.95
2022-11-29T06:01:23.385Z,3.00
2022-11-29T06:04:14.592Z,2.60
2022-11-29T06:06:58.055Z,2.20
2022-11-29T06:09:28.688Z,2.53
2022-11-29T06:12:05.583Z,2.20
2022-11-29T06:15:03.480Z,2.72
2022-11-29T06:17:34.341Z,2.72
2022-11-29T06:20:11.182Z,3.20
2022-11-29T06:23:14.065Z,2.22
2022-11-29T06:26:20.455Z,1.92
2022-11-29T06:29:10.792Z,2.83
2022-11-29T06:31:44.531Z,3.22
2022-11-29T06:34:31.031Z,3.42
2022-11-29T06:37:05.652Z,2.97
2022-11-29T06:39:32.774Z,4.28
2022-11-29T06:41:59.632Z,2.65
2022-11-29T06:44:26.822Z,2.63
2022-11-29T06:47:16.967Z,2.22
2022-11-29T06:49:54.749Z,3.28
2022-11-29T06:52:29.875Z,3.30
2022-11-29T06:55:11.607Z,2.40
2022-11-29T06:58:24.540Z,3.58
2022-11-29T07:00:59.656Z,3.42
2022-11-29T07:03:59.087Z,2.63
2022-11-29T07:06:27.450Z,3.42
2022-11-29T07:09:00.951Z,2.90
2022-11-29T07:11:28.885Z,2.78
2022-11-29T07:13:56.304Z,3.30
2022-11-29T07:16:35.845Z,3.15
2022-11-29T07:19:27.558Z,3.38
2022-11-29T07:22:38.746Z,3.80
2022-11-29T07:25:17.363Z,2.92
2022-11-29T07:27:53.626Z,2.60
2022-11-29T07:30:25.624Z,2.50
2022-11-29T07:33:21.501Z,2.88
2022-11-29T07:36:09.436Z,4.45
2022-11-29T07:39:18.059Z,3.53
2022-11-29T07:41:53.035Z,2.80
2022-11-29T07:44:37.541Z,3.92
2022-11-29T07:47:04.462Z,4.47
2022-11-29T07:49:32.069Z,3.92
2022-11-29T07:51:58.869Z,2.58
2022-11-29T07:54:25.678Z,3.60
2022-11-29T07:56:52.828Z,3.63
2022-11-29T07:59:20.259Z,3.70
2022-11-29T08:01:47.135Z,3.83
2022-11-29T08:04:14.218Z,4.55
2022-11-29T08:06:41.140Z,4.40
2022-11-29T08:09:07.989Z,3.30
2022-11-29T08:11:34.858Z,4.53
2022-11-29T08:14:03.780Z,4.20
2022-11-29T08:16:30.660Z,3.63
2022-11-29T08:18:57.609Z,4.00
2022-11-29T08:21:24.706Z,4.28
2022-11-29T08:23:51.706Z,5.82
2022-11-29T08:26:19.960Z,5.63
2022-11-29T08:28:52.040Z,4.65
2022-11-29T08:31:19.824Z,3.63
2022-11-29T08:33:47.413Z,4.05
2022-11-29T08:36:17.675Z,3.65
2022-11-29T08:38:44.816Z,4.40
2022-11-29T08:41:14.144Z,4.85
2022-11-29T08:43:41.679Z,5.15
2022-11-29T08:46:11.350Z,5.32
2022-11-29T08:48:42.140Z,4.82
2022-11-29T08:51:09.023Z,5.10
2022-11-29T08:53:41.855Z,5.00
2022-11-29T08:59:05.621Z,5.72
2022-11-29T09:01:32.754Z,6.90
2022-11-29T09:03:59.611Z,6.22
2022-11-29T09:06:28.961Z,5.15
2022-11-29T09:08:56.542Z,5.30
2022-11-29T09:11:25.094Z,5.65
2022-11-29T09:13:54.869Z,5.55
2022-11-29T09:16:25.348Z,5.35
2022-11-29T09:18:55.171Z,5.82
2022-11-29T09:21:24.589Z,5.90
2022-11-29T09:23:58.836Z,5.35
2022-11-29T09:26:29.350Z,4.90
2022-11-29T09:28:58.331Z,4.97
2022-11-29T09:31:25.623Z,4.75
2022-11-29T09:33:52.565Z,4.00
2022-11-29T09:36:23.745Z,2.95
2022-11-29T09:38:53.552Z,3.30
2022-11-29T09:41:26.384Z,3.28
2022-11-29T09:44:11.774Z,2.92
2022-11-29T09:46:41.395Z,4.57
2022-11-29T09:49:50.047Z,5.03
2022-11-29T09:52:38.416Z,4.80
2022-11-29T09:55:24.169Z,4.95
2022-11-29T09:57:52.870Z,3.88
2022-11-29T10:00:20.536Z,5.28
2022-11-29T10:03:02.850Z,4.70
2022-11-29T10:05:51.744Z,4.63
2022-11-29T10:08:21.363Z,5.13
2022-11-29T10:10:49.884Z,3.35
2022-11-29T10:13:35.192Z,3.75
2022-11-29T10:16:12.477Z,2.88
2022-11-29T10:19:05.154Z,2.75
2022-11-29T10:21:37.099Z,3.22
2022-11-29T10:24:17.966Z,2.50
2022-11-29T10:26:44.905Z,2.65
2022-11-29T10:29:15.669Z,2.78
2022-11-29T10:31:49.577Z,2.70
2022-11-29T10:34:20.415Z,2.58
2022-11-29T10:37:01.474Z,1.75
2022-11-29T10:39:34.103Z,1.80
2022-11-29T10:42:03.548Z,1.95
2022-11-29T10:44:32.302Z,1.77
2022-11-29T10:47:00.621Z,2.40
2022-11-29T10:49:28.488Z,1.60
2022-11-29T10:51:55.355Z,1.90
2022-11-29T10:54:31.711Z,1.90
2022-11-29T10:57:00.853Z,2.22
2022-11-29T10:59:29.958Z,1.23
2022-11-29T11:01:57.750Z,1.63
2022-11-29T11:04:33.539Z,1.85
2022-11-29T11:07:02.416Z,1.42
2022-11-29T11:09:38.042Z,1.77
2022-11-29T11:12:19.343Z,1.55
2022-11-29T11:14:47.260Z,1.95
2022-11-29T11:17:19.188Z,2.00
2022-11-29T11:20:02.131Z,2.00
2022-11-29T11:22:29.883Z,2.22
2022-11-29T11:25:00.076Z,1.95
2022-11-29T11:27:32.040Z,2.92
2022-11-29T11:29:59.402Z,1.65
2022-11-29T11:32:29.130Z,1.63
2022-11-29T11:35:01.137Z,2.10
2022-11-29T11:37:30.969Z,2.28
2022-11-29T11:40:00.379Z,2.03
2022-11-29T11:42:38.758Z,1.95
2022-11-29T11:45:05.670Z,1.65
2022-11-29T11:47:33.586Z,2.50
2022-11-29T11:50:00.397Z,1.50
2022-11-29T11:52:30.274Z,2.00
2022-11-29T11:55:07.581Z,1.97
2022-11-29T11:57:34.478Z,2.25
2022-11-29T12:00:06.700Z,1.55
2022-11-29T12:02:43.757Z,2.13
2022-11-29T12:05:14.264Z,1.95
2022-11-29T12:08:07.236Z,1.83
2022-11-29T12:10:34.989Z,2.20
2022-11-29T12:13:02.166Z,2.13
2022-11-29T12:15:33.153Z,1.70
2022-11-29T12:18:33.830Z,1.63
2022-11-29T12:21:10.373Z,2.30
2022-11-29T12:23:45.536Z,3.55
2022-11-29T12:26:55.468Z,2.25
2022-11-29T12:29:23.116Z,2.03
2022-11-29T12:31:55.244Z,1.50
2022-11-29T12:34:42.992Z,2.05
2022-11-29T12:37:28.200Z,1.35
2022-11-29T12:40:21.672Z,1.30
2022-11-29T12:43:00.368Z,1.27
2022-11-29T12:45:35.260Z,1.90
2022-11-29T12:48:26.421Z,1.30
2022-11-29T12:53:34.805Z,1.80
2022-11-29T12:56:19.162Z,1.88
2022-11-29T12:59:08.495Z,2.00
2022-11-29T13:02:06.187Z,1.73
2022-11-29T13:04:42.978Z,1.92
2022-11-29T13:07:24.824Z,1.80
2022-11-29T13:10:07.000Z,1.85
2022-11-29T13:12:40.730Z,1.58
2022-11-29T13:15:18.971Z,1.15
2022-11-29T13:18:23.856Z,1.38
2022-11-29T13:21:01.834Z,1.60
2022-11-29T13:23:39.414Z,1.35
2022-11-29T13:26:23.150Z,1.85
2022-11-29T13:28:50.594Z,1.70
2022-11-29T13:31:24.944Z,1.75
2022-11-29T13:34:10.381Z,1.35
2022-11-29T13:37:11.002Z,1.45
2022-11-29T13:40:14.829Z,1.67
2022-11-29T13:43:04.226Z,2.35
2022-11-29T13:45:43.333Z,2.00
2022-11-29T13:48:28.778Z,2.05
2022-11-29T13:51:00.143Z,1.38
2022-11-29T13:53:48.293Z,1.92
2022-11-29T13:56:27.320Z,2.20
2022-11-29T13:58:54.740Z,2.35
2022-11-29T14:01:22.642Z,2.08
2022-11-29T14:04:29.214Z,2.45
2022-11-29T14:07:25.625Z,1.95
2022-11-29T14:10:28.563Z,2.00
2022-11-29T14:12:57.905Z,1.60
2022-11-29T14:15:31.842Z,1.67
2022-11-29T14:18:05.468Z,1.50
2022-11-29T14:20:32.739Z,1.98
2022-11-29T14:23:06.268Z,2.17
2022-11-29T14:25:55.584Z,2.40
2022-11-29T14:28:22.742Z,4.68
2022-11-29T14:30:50.621Z,3.65
2022-11-29T14:33:43.928Z,2.85
2022-11-29T14:36:25.932Z,2.05
2022-11-29T14:39:05.021Z,2.65
2022-11-29T14:41:31.903Z,1.40
2022-11-29T14:44:26.171Z,2.40
2022-11-29T14:47:19.466Z,3.00
2022-11-29T14:49:47.161Z,3.55
2022-11-29T14:52:13.928Z,3.97
2022-11-29T14:55:03.926Z,4.85
2022-11-29T14:58:06.195Z,3.17
2022-11-29T15:00:47.326Z,3.10
2022-11-29T15:05:47.287Z,3.08
2022-11-29T15:08:32.256Z,2.75
2022-11-29T15:11:03.068Z,3.40
2022-11-29T15:13:32.293Z,3.13
2022-11-29T15:16:26.351Z,3.40
2022-11-29T15:18:53.208Z,2.70
2022-11-29T15:21:52.161Z,2.72
2022-11-29T15:24:19.828Z,3.25
2022-11-29T15:27:02.749Z,3.47
2022-11-29T15:29:31.137Z,3.22
2022-11-29T15:31:59.713Z,2.78
2022-11-29T15:34:35.372Z,4.25
2022-11-29T15:37:02.274Z,3.17
2022-11-29T15:39:38.220Z,2.65
2022-11-29T15:42:11.560Z,3.83
2022-11-29T15:44:45.683Z,3.20
2022-11-29T15:47:25.689Z,3.65
2022-11-29T15:49:54.010Z,4.10
2022-11-29T15:52:31.778Z,5.35
2022-11-29T15:55:01.273Z,6.22
2022-11-29T15:57:35.685Z,8.90
2022-11-29T16:00:05.098Z,12.55
2022-11-29T16:02:34.471Z,15.98
2022-11-29T16:05:10.571Z,12.40
2022-11-29T16:07:38.775Z,11.73
2022-11-29T16:10:13.176Z,22.20
2022-11-29T16:13:01.090Z,23.42
2022-11-29T16:15:34.180Z,19.33
2022-11-29T16:18:15.329Z,18.55
2022-11-29T16:20:43.005Z,16.33
2022-11-29T16:23:13.558Z,15.27
2022-11-29T16:25:56.062Z,14.32
2022-11-29T16:28:34.619Z,15.63
2022-11-29T16:31:01.638Z,12.18
2022-11-29T16:33:28.426Z,11.40
2022-11-29T16:36:16.161Z,8.15
2022-11-29T16:38:45.657Z,9.10
2022-11-29T16:41:41.855Z,8.63
2022-11-29T16:44:41.447Z,7.43
2022-11-29T16:47:12.595Z,9.15
2022-11-29T16:49:39.480Z,10.15
2022-11-29T16:52:26.624Z,26.65
2022-11-29T16:54:53.570Z,10.73
2022-11-29T16:57:20.826Z,14.77
2022-11-29T16:59:47.868Z,13.85
2022-11-29T17:02:15.578Z,16.55
2022-11-29T17:04:43.332Z,11.13
2022-11-29T17:07:20.171Z,14.48
2022-11-29T17:09:47.037Z,7.60
2022-11-29T17:12:13.951Z,18.08
2022-11-29T17:14:40.931Z,17.10
2022-11-29T17:17:07.717Z,13.80
2022-11-29T17:19:34.668Z,28.33
2022-11-29T17:22:01.476Z,32.83
2022-11-29T17:24:30.596Z,20.77
2022-11-29T17:26:57.527Z,15.88
2022-11-29T17:29:24.345Z,13.93
2022-11-29T17:31:53.194Z,9.00
2022-11-29T17:34:20.226Z,5.88
2022-11-29T17:36:47.324Z,8.18
2022-11-29T17:39:15.753Z,7.65
2022-11-29T17:41:42.557Z,8.27
2022-11-29T17:44:09.632Z,8.00
2022-11-29T17:46:37.556Z,11.10
2022-11-29T17:49:06.739Z,10.70
2022-11-29T17:54:24.247Z,12.13
2022-11-29T17:56:51.333Z,10.50
2022-11-29T17:59:18.526Z,9.35
2022-11-29T18:01:47.416Z,9.38
2022-11-29T18:04:14.816Z,8.52
2022-11-29T18:06:42.098Z,7.25
2022-11-29T18:09:10.180Z,7.43
2022-11-29T18:11:46.975Z,4.93
2022-11-29T18:14:17.846Z,7.47
2022-11-29T18:16:47.563Z,10.02
2022-11-29T18:19:17.105Z,8.82
2022-11-29T18:21:44.204Z,7.03
2022-11-29T18:24:11.056Z,7.97
2022-11-29T18:26:38.508Z,7.32
2022-11-29T18:29:06.831Z,8.25
2022-11-29T18:31:35.744Z,6.57
2022-11-29T18:34:07.007Z,5.28
2022-11-29T18:36:36.652Z,4.38
2022-11-29T18:39:08.907Z,5.18
2022-11-29T18:41:36.337Z,5.07
2022-11-29T18:44:08.288Z,5.95
2022-11-29T18:46:37.419Z,10.18
2022-11-29T18:49:06.197Z,12.15
2022-11-29T18:51:37.170Z,6.35
2022-11-29T18:54:05.025Z,4.80
2022-11-29T18:56:34.556Z,4.50
2022-11-29T18:59:10.390Z,4.07
2022-11-29T19:01:41.190Z,3.70
2022-11-29T19:06:39.732Z,3.97
2022-11-29T19:09:11.236Z,3.75
2022-11-29T19:11:38.293Z,5.18
2022-11-29T19:14:11.156Z,3.70
2022-11-29T19:16:40.097Z,3.35
2022-11-29T19:19:07.159Z,2.88
2022-11-29T19:21:34.751Z,2.33
2022-11-29T19:24:06.912Z,2.40
2022-11-29T19:26:34.759Z,3.38
2022-11-29T19:29:04.207Z,3.00
2022-11-29T19:31:31.673Z,3.60
2022-11-29T19:33:58.615Z,3.95
2022-11-29T19:36:30.498Z,4.13
2022-11-29T19:39:01.470Z,4.57
2022-11-29T19:41:33.417Z,4.82
2022-11-29T19:44:05.842Z,5.32
2022-11-29T19:46:36.194Z,5.07
2022-11-29T19:49:05.003Z,5.95
2022-11-29T19:51:32.396Z,5.80
2022-11-29T19:54:01.522Z,4.45
2022-11-29T19:56:29.205Z,4.80
2022-11-29T19:58:56.254Z,7.88
2022-11-29T20:01:27.982Z,8.88
2022-11-29T20:03:58.649Z,9.63
2022-11-29T20:06:30.469Z,4.55
2022-11-29T20:08:57.677Z,4.38
2022-11-29T20:11:25.351Z,4.93
2022-11-29T20:13:54.963Z,4.65
2022-11-29T20:16:22.259Z,3.90
2022-11-29T20:18:51.159Z,3.95
2022-11-29T20:52:59.484Z,6.70
2022-11-29T20:55:26.460Z,6.63
2022-11-29T20:57:55.188Z,6.20
2022-11-29T21:00:22.318Z,5.30
2022-11-29T21:02:49.378Z,5.45
2022-11-29T21:05:16.508Z,5.38
2022-11-29T21:07:44.160Z,4.28
2022-11-29T21:10:11.407Z,4.88
2022-11-29T21:12:38.802Z,4.43
2022-11-29T21:15:06.527Z,4.07
2022-11-29T21:17:34.180Z,4.47
2022-11-29T21:20:01.444Z,4.82
2022-11-29T21:22:42.211Z,4.68
2022-11-29T21:25:54.149Z,2.88
2022-11-29T21:28:25.560Z,3.83
2022-11-29T21:30:52.771Z,3.65
2022-11-29T21:33:19.881Z,5.20
2022-11-29T21:35:48.183Z,4.97
2022-11-29T21:38:17.724Z,5.35
2022-11-29T21:40:44.537Z,4.50
2022-11-29T21:43:11.420Z,4.95
2022-11-29T21:45:38.295Z,4.65
2022-11-29T21:48:25.248Z,3.15
2022-11-29T21:50:52.163Z,3.83
2022-11-29T21:53:18.992Z,2.80
2022-11-29T21:55:45.937Z,3.92
2022-11-29T21:58:12.754Z,3.80
2022-11-29T22:00:39.730Z,3.05
2022-11-29T22:03:06.607Z,3.35
2022-11-29T22:05:33.509Z,3.10
2022-11-29T22:08:00.355Z,3.60
2022-11-29T22:10:28.063Z,3.63
2022-11-29T22:12:54.911Z,2.03
2022-11-29T22:15:24.823Z,2.60
2022-11-29T22:17:53.452Z,3.40
2022-11-29T22:20:20.512Z,4.00
2022-11-29T22:22:48.655Z,3.45
2022-11-29T22:25:15.902Z,3.85
2022-11-29T22:27:42.677Z,3.13
2022-11-29T22:30:09.860Z,3.50
2022-11-29T22:32:36.709Z,3.78
2022-11-29T22:35:03.641Z,3.10
2022-11-29T22:37:30.444Z,3.92
2022-11-29T22:39:57.778Z,3.20
2022-11-29T22:42:24.747Z,3.03
2022-11-29T22:44:51.869Z,3.75
2022-11-29T22:47:21.490Z,3.90
2022-11-29T22:49:49.693Z,4.22
2022-11-29T22:52:16.514Z,3.00
2022-11-29T22:54:44.521Z,3.90
2022-11-29T22:57:11.665Z,3.28
2022-11-29T22:59:38.609Z,3.67
2022-11-29T23:02:05.588Z,3.92
2022-11-29T23:04:32.535Z,3.83
2022-11-29T23:06:59.937Z,4.10
2022-11-29T23:09:26.660Z,4.88
2022-11-29T23:11:55.813Z,4.30
2022-11-29T23:14:23.340Z,3.15
2022-11-29T23:16:50.786Z,3.72
2022-11-29T23:19:18.170Z,2.47
2022-11-29T23:21:46.272Z,2.40
2022-11-29T23:24:14.898Z,3.75
2022-11-29T23:26:44.477Z,3.13
2022-11-29T23:29:16.541Z,1.90
2022-11-29T23:31:43.795Z,1.95
2022-11-29T23:34:11.274Z,2.25
2022-11-29T23:36:38.152Z,2.00
2022-11-29T23:39:06.694Z,2.38
2022-11-29T23:41:34.595Z,2.72
2022-11-29T23:44:04.022Z,4.13
2022-11-29T23:46:31.014Z,4.05
2022-11-29T23:48:57.797Z,3.20
2022-11-29T23:51:24.671Z,2.90
2022-11-29T23:53:54.857Z,2.95
2022-11-29T23:56:22.282Z,2.85
2022-11-29T23:58:49.978Z,2.65
